sensor_id;sensor_type;location;lat;lon;timestamp;temperature;humidity
14378;DHT22;7272;53.668;9.578;2022-12-26T00:03:01;9.00;99.90
14378;DHT22;7272;53.668;9.578;2022-12-26T00:06:10;9.00;99.90
14378;DHT22;7272;53.668;9.578;2022-12-26T00:09:15;9.00;99.90
14378;DHT22;7272;53.668;9.578;2022-12-26T00:12:19;9.00;99.90
14378;DHT22;7272;53.668;9.578;2022-12-26T00:15:23;9.10;99.90
14378;DHT22;7272;53.668;9.578;2022-12-26T00:18:32;9.10;99.90
14378;DHT22;7272;53.668;9.578;2022-12-26T00:21:36;9.10;99.90
14378;DHT22;7272;53.668;9.578;2022-12-26T00:24:38;9.00;99.90
14378;DHT22;7272;53.668;9.578;2022-12-26T00:27:42;8.90;99.90
14378;DHT22;7272;53.668;9.578;2022-12-26T00:30:44;8.90;99.90
14378;DHT22;7272;53.668;9.578;2022-12-26T00:33:46;8.90;99.90
14378;DHT22;7272;53.668;9.578;2022-12-26T00:36:49;8.90;99.90
14378;DHT22;7272;53.668;9.578;2022-12-26T00:39:51;9.00;99.90
14378;DHT22;7272;53.668;9.578;2022-12-26T00:42:54;9.00;99.90
14378;DHT22;7272;53.668;9.578;2022-12-26T00:45:57;9.00;99.90
14378;DHT22;7272;53.668;9.578;2022-12-26T00:48:59;9.00;99.90
14378;DHT22;7272;53.668;9.578;2022-12-26T00:52:02;8.90;99.90
14378;DHT22;7272;53.668;9.578;2022-12-26T00:55:04;8.90;99.90
14378;DHT22;7272;53.668;9.578;2022-12-26T00:58:08;8.90;99.90
14378;DHT22;7272;53.668;9.578;2022-12-26T01:01:13;8.90;99.90
14378;DHT22;7272;53.668;9.578;2022-12-26T01:04:15;8.90;99.90
14378;DHT22;7272;53.668;9.578;2022-12-26T01:07:17;8.80;99.90
14378;DHT22;7272;53.668;9.578;2022-12-26T01:10:20;8.80;99.90
14378;DHT22;7272;53.668;9.578;2022-12-26T01:13:24;8.90;99.90
14378;DHT22;7272;53.668;9.578;2022-12-26T01:16:26;8.90;99.90
14378;DHT22;7272;53.668;9.578;2022-12-26T01:19:28;8.90;99.90
14378;DHT22;7272;53.668;9.578;2022-12-26T01:22:30;8.90;99.90
14378;DHT22;7272;53.668;9.578;2022-12-26T01:25:33;8.90;99.90
14378;DHT22;7272;53.668;9.578;2022-12-26T01:28:36;9.00;99.90
14378;DHT22;7272;53.668;9.578;2022-12-26T01:31:39;9.00;99.90
14378;DHT22;7272;53.668;9.578;2022-12-26T01:34:42;9.00;99.90
14378;DHT22;7272;53.668;9.578;2022-12-26T01:37:44;9.00;99.90
14378;DHT22;7272;53.668;9.578;2022-12-26T01:40:47;9.10;99.90
14378;DHT22;7272;53.668;9.578;2022-12-26T01:47:50;9.10;99.90
14378;DHT22;7272;53.668;9.578;2022-12-26T01:50:57;9.10;99.90
14378;DHT22;7272;53.668;9.578;2022-12-26T01:54:04;9.20;99.90
14378;DHT22;7272;53.668;9.578;2022-12-26T01:57:10;9.20;99.90
14378;DHT22;7272;53.668;9.578;2022-12-26T02:00:15;9.20;99.90
14378;DHT22;7272;53.668;9.578;2022-12-26T02:03:18;9.20;99.90
14378;DHT22;7272;53.668;9.578;2022-12-26T02:06:38;9.20;99.90
14378;DHT22;7272;53.668;9.578;2022-12-26T02:09:41;9.20;99.90
14378;DHT22;7272;53.668;9.578;2022-12-26T02:12:44;9.20;99.90
14378;DHT22;7272;53.668;9.578;2022-12-26T02:15:47;9.20;99.90
14378;DHT22;7272;53.668;9.578;2022-12-26T02:18:51;9.20;99.90
14378;DHT22;7272;53.668;9.578;2022-12-26T02:25:50;9.30;99.90
14378;DHT22;7272;53.668;9.578;2022-12-26T02:29:22;9.50;99.90
14378;DHT22;7272;53.668;9.578;2022-12-26T02:36:26;9.50;99.90
14378;DHT22;7272;53.668;9.578;2022-12-26T02:39:43;9.50;99.90
14378;DHT22;7272;53.668;9.578;2022-12-26T02:42:55;9.50;99.90
14378;DHT22;7272;53.668;9.578;2022-12-26T02:46:05;9.50;99.90
14378;DHT22;7272;53.668;9.578;2022-12-26T02:49:40;9.50;99.90
14378;DHT22;7272;53.668;9.578;2022-12-26T02:53:04;9.50;99.90
14378;DHT22;7272;53.668;9.578;2022-12-26T02:56:32;9.40;99.90
14378;DHT22;7272;53.668;9.578;2022-12-26T02:59:57;9.40;99.90
14378;DHT22;7272;53.668;9.578;2022-12-26T03:03:24;9.40;99.90
14378;DHT22;7272;53.668;9.578;2022-12-26T03:06:53;9.40;99.90
14378;DHT22;7272;53.668;9.578;2022-12-26T03:10:17;9.30;99.90
14378;DHT22;7272;53.668;9.578;2022-12-26T03:13:38;9.30;99.90
14378;DHT22;7272;53.668;9.578;2022-12-26T03:16:42;9.30;99.90
14378;DHT22;7272;53.668;9.578;2022-12-26T03:20:08;9.30;99.90
14378;DHT22;7272;53.668;9.578;2022-12-26T03:23:15;9.30;99.90
14378;DHT22;7272;53.668;9.578;2022-12-26T03:26:20;9.30;99.90
14378;DHT22;7272;53.668;9.578;2022-12-26T03:29:42;9.30;99.90
14378;DHT22;7272;53.668;9.578;2022-12-26T03:33:01;9.30;99.90
14378;DHT22;7272;53.668;9.578;2022-12-26T03:36:05;9.40;99.90
14378;DHT22;7272;53.668;9.578;2022-12-26T03:39:16;9.40;99.90
14378;DHT22;7272;53.668;9.578;2022-12-26T03:42:26;9.40;99.90
14378;DHT22;7272;53.668;9.578;2022-12-26T03:45:53;9.50;99.90
14378;DHT22;7272;53.668;9.578;2022-12-26T03:49:21;9.40;99.90
14378;DHT22;7272;53.668;9.578;2022-12-26T03:52:47;9.40;99.90
14378;DHT22;7272;53.668;9.578;2022-12-26T03:56:15;9.40;99.90
14378;DHT22;7272;53.668;9.578;2022-12-26T03:59:47;9.40;99.90
14378;DHT22;7272;53.668;9.578;2022-12-26T04:03:13;9.50;99.90
14378;DHT22;7272;53.668;9.578;2022-12-26T04:06:42;9.50;99.90
14378;DHT22;7272;53.668;9.578;2022-12-26T04:10:06;9.50;99.90
14378;DHT22;7272;53.668;9.578;2022-12-26T04:13:43;9.70;99.90
14378;DHT22;7272;53.668;9.578;2022-12-26T04:17:19;9.70;99.90
14378;DHT22;7272;53.668;9.578;2022-12-26T04:20:46;9.60;99.90
14378;DHT22;7272;53.668;9.578;2022-12-26T04:23:50;9.60;99.90
14378;DHT22;7272;53.668;9.578;2022-12-26T04:27:12;9.60;99.90
14378;DHT22;7272;53.668;9.578;2022-12-26T04:30:37;9.60;99.90
14378;DHT22;7272;53.668;9.578;2022-12-26T04:34:00;9.60;99.90
14378;DHT22;7272;53.668;9.578;2022-12-26T04:37:24;9.60;99.90
14378;DHT22;7272;53.668;9.578;2022-12-26T04:40:49;9.60;99.90
14378;DHT22;7272;53.668;9.578;2022-12-26T04:44:12;9.60;99.90
14378;DHT22;7272;53.668;9.578;2022-12-26T04:47:17;9.50;99.90
14378;DHT22;7272;53.668;9.578;2022-12-26T04:50:19;9.50;99.90
14378;DHT22;7272;53.668;9.578;2022-12-26T04:53:20;9.50;99.90
14378;DHT22;7272;53.668;9.578;2022-12-26T04:56:23;9.50;99.90
14378;DHT22;7272;53.668;9.578;2022-12-26T04:59:25;9.50;99.90
14378;DHT22;7272;53.668;9.578;2022-12-26T05:02:29;9.50;99.90
14378;DHT22;7272;53.668;9.578;2022-12-26T05:05:50;9.50;99.90
14378;DHT22;7272;53.668;9.578;2022-12-26T05:09:10;9.50;99.90
14378;DHT22;7272;53.668;9.578;2022-12-26T05:12:30;9.50;99.90
14378;DHT22;7272;53.668;9.578;2022-12-26T05:15:32;9.40;99.90
14378;DHT22;7272;53.668;9.578;2022-12-26T05:18:56;9.40;99.90
14378;DHT22;7272;53.668;9.578;2022-12-26T05:22:16;9.40;99.90
14378;DHT22;7272;53.668;9.578;2022-12-26T05:25:38;9.50;99.90
14378;DHT22;7272;53.668;9.578;2022-12-26T05:28:59;9.50;99.90
14378;DHT22;7272;53.668;9.578;2022-12-26T05:32:03;9.50;99.90
14378;DHT22;7272;53.668;9.578;2022-12-26T05:35:08;9.50;99.90
14378;DHT22;7272;53.668;9.578;2022-12-26T05:38:09;9.40;99.90
14378;DHT22;7272;53.668;9.578;2022-12-26T05:41:11;9.40;99.90
14378;DHT22;7272;53.668;9.578;2022-12-26T05:44:14;9.40;99.90
14378;DHT22;7272;53.668;9.578;2022-12-26T05:47:16;9.40;99.90
14378;DHT22;7272;53.668;9.578;2022-12-26T05:50:19;9.40;99.90
14378;DHT22;7272;53.668;9.578;2022-12-26T05:53:21;9.50;99.90
14378;DHT22;7272;53.668;9.578;2022-12-26T05:56:23;9.60;99.90
14378;DHT22;7272;53.668;9.578;2022-12-26T05:59:26;9.50;99.90
14378;DHT22;7272;53.668;9.578;2022-12-26T06:02:28;9.60;99.90
14378;DHT22;7272;53.668;9.578;2022-12-26T06:05:32;9.50;99.90
14378;DHT22;7272;53.668;9.578;2022-12-26T06:08:34;9.50;99.90
14378;DHT22;7272;53.668;9.578;2022-12-26T06:11:37;9.60;99.90
14378;DHT22;7272;53.668;9.578;2022-12-26T06:14:40;9.60;99.90
14378;DHT22;7272;53.668;9.578;2022-12-26T06:17:42;9.60;99.90
14378;DHT22;7272;53.668;9.578;2022-12-26T06:20:45;9.60;99.90
14378;DHT22;7272;53.668;9.578;2022-12-26T06:23:48;9.60;99.90
14378;DHT22;7272;53.668;9.578;2022-12-26T06:26:52;9.60;99.90
14378;DHT22;7272;53.668;9.578;2022-12-26T06:29:55;9.60;99.90
14378;DHT22;7272;53.668;9.578;2022-12-26T06:32:57;9.60;99.90
14378;DHT22;7272;53.668;9.578;2022-12-26T06:36:06;9.60;99.90
14378;DHT22;7272;53.668;9.578;2022-12-26T06:39:08;9.60;99.90
14378;DHT22;7272;53.668;9.578;2022-12-26T06:42:10;9.60;99.90
14378;DHT22;7272;53.668;9.578;2022-12-26T06:45:12;9.60;99.90
14378;DHT22;7272;53.668;9.578;2022-12-26T06:48:15;9.70;99.90
14378;DHT22;7272;53.668;9.578;2022-12-26T06:51:20;9.60;99.90
14378;DHT22;7272;53.668;9.578;2022-12-26T06:54:22;9.70;99.90
14378;DHT22;7272;53.668;9.578;2022-12-26T06:57:24;9.70;99.90
14378;DHT22;7272;53.668;9.578;2022-12-26T07:00:27;9.70;99.90
14378;DHT22;7272;53.668;9.578;2022-12-26T07:03:29;9.70;99.90
14378;DHT22;7272;53.668;9.578;2022-12-26T07:06:35;9.70;99.90
14378;DHT22;7272;53.668;9.578;2022-12-26T07:09:37;9.70;99.90
14378;DHT22;7272;53.668;9.578;2022-12-26T07:12:39;9.80;99.90
14378;DHT22;7272;53.668;9.578;2022-12-26T07:15:41;9.80;99.90
14378;DHT22;7272;53.668;9.578;2022-12-26T07:18:43;9.80;99.90
14378;DHT22;7272;53.668;9.578;2022-12-26T07:21:47;9.80;99.90
14378;DHT22;7272;53.668;9.578;2022-12-26T07:24:49;9.80;99.90
14378;DHT22;7272;53.668;9.578;2022-12-26T07:27:52;9.80;99.90
14378;DHT22;7272;53.668;9.578;2022-12-26T07:30:55;9.90;99.90
14378;DHT22;7272;53.668;9.578;2022-12-26T07:33:59;9.90;99.90
14378;DHT22;7272;53.668;9.578;2022-12-26T07:37:03;9.90;99.90
14378;DHT22;7272;53.668;9.578;2022-12-26T07:40:06;9.90;99.90
14378;DHT22;7272;53.668;9.578;2022-12-26T07:43:08;9.80;99.90
14378;DHT22;7272;53.668;9.578;2022-12-26T07:46:10;9.80;99.90
14378;DHT22;7272;53.668;9.578;2022-12-26T07:49:12;9.80;99.90
14378;DHT22;7272;53.668;9.578;2022-12-26T07:52:16;9.90;99.90
14378;DHT22;7272;53.668;9.578;2022-12-26T07:55:18;9.80;99.90
14378;DHT22;7272;53.668;9.578;2022-12-26T07:58:20;9.90;99.90
14378;DHT22;7272;53.668;9.578;2022-12-26T08:01:22;9.90;99.90
14378;DHT22;7272;53.668;9.578;2022-12-26T08:04:24;9.90;99.90
14378;DHT22;7272;53.668;9.578;2022-12-26T08:07:28;9.90;99.90
14378;DHT22;7272;53.668;9.578;2022-12-26T08:10:30;9.90;99.90
14378;DHT22;7272;53.668;9.578;2022-12-26T08:13:33;9.90;99.90
14378;DHT22;7272;53.668;9.578;2022-12-26T08:16:35;9.90;99.90
14378;DHT22;7272;53.668;9.578;2022-12-26T08:19:38;9.90;99.90
14378;DHT22;7272;53.668;9.578;2022-12-26T08:22:42;10.00;99.90
14378;DHT22;7272;53.668;9.578;2022-12-26T08:25:44;10.00;99.90
14378;DHT22;7272;53.668;9.578;2022-12-26T08:28:47;10.00;99.90
14378;DHT22;7272;53.668;9.578;2022-12-26T08:31:49;10.00;99.90
14378;DHT22;7272;53.668;9.578;2022-12-26T08:34:51;10.10;99.90
14378;DHT22;7272;53.668;9.578;2022-12-26T08:37:55;10.00;99.90
14378;DHT22;7272;53.668;9.578;2022-12-26T08:40:57;10.00;99.90
14378;DHT22;7272;53.668;9.578;2022-12-26T08:43:59;10.00;99.90
14378;DHT22;7272;53.668;9.578;2022-12-26T08:47:01;10.00;99.90
14378;DHT22;7272;53.668;9.578;2022-12-26T08:50:04;10.00;99.90
14378;DHT22;7272;53.668;9.578;2022-12-26T08:53:08;10.00;99.90
14378;DHT22;7272;53.668;9.578;2022-12-26T08:56:12;10.10;99.90
14378;DHT22;7272;53.668;9.578;2022-12-26T08:59:14;10.10;99.90
14378;DHT22;7272;53.668;9.578;2022-12-26T09:02:16;10.10;99.90
14378;DHT22;7272;53.668;9.578;2022-12-26T09:05:18;10.20;99.90
14378;DHT22;7272;53.668;9.578;2022-12-26T09:08:22;10.20;99.90
14378;DHT22;7272;53.668;9.578;2022-12-26T09:11:25;10.20;99.90
14378;DHT22;7272;53.668;9.578;2022-12-26T09:14:28;10.20;99.90
14378;DHT22;7272;53.668;9.578;2022-12-26T09:17:30;10.20;99.90
14378;DHT22;7272;53.668;9.578;2022-12-26T09:20:32;10.20;99.90
14378;DHT22;7272;53.668;9.578;2022-12-26T09:23:36;10.20;99.90
14378;DHT22;7272;53.668;9.578;2022-12-26T09:26:39;10.30;99.90
14378;DHT22;7272;53.668;9.578;2022-12-26T09:29:41;10.30;99.90
14378;DHT22;7272;53.668;9.578;2022-12-26T09:32:43;10.20;99.90
14378;DHT22;7272;53.668;9.578;2022-12-26T09:35:46;10.30;99.90
14378;DHT22;7272;53.668;9.578;2022-12-26T09:38:49;10.30;99.90
14378;DHT22;7272;53.668;9.578;2022-12-26T09:42:00;10.30;99.90
14378;DHT22;7272;53.668;9.578;2022-12-26T09:45:09;10.30;99.90
14378;DHT22;7272;53.668;9.578;2022-12-26T09:48:16;10.40;99.90
14378;DHT22;7272;53.668;9.578;2022-12-26T09:51:20;10.40;99.90
14378;DHT22;7272;53.668;9.578;2022-12-26T09:54:29;10.40;99.90
14378;DHT22;7272;53.668;9.578;2022-12-26T09:57:37;10.40;99.90
14378;DHT22;7272;53.668;9.578;2022-12-26T10:00:45;10.40;99.90
14378;DHT22;7272;53.668;9.578;2022-12-26T10:03:51;10.40;99.90
14378;DHT22;7272;53.668;9.578;2022-12-26T10:07:03;10.40;99.90
14378;DHT22;7272;53.668;9.578;2022-12-26T10:10:13;10.40;99.90
14378;DHT22;7272;53.668;9.578;2022-12-26T10:13:25;10.40;99.90
14378;DHT22;7272;53.668;9.578;2022-12-26T10:16:41;10.40;99.90
14378;DHT22;7272;53.668;9.578;2022-12-26T10:20:02;10.40;99.90
14378;DHT22;7272;53.668;9.578;2022-12-26T10:23:31;10.40;99.90
14378;DHT22;7272;53.668;9.578;2022-12-26T10:26:38;10.40;99.90
14378;DHT22;7272;53.668;9.578;2022-12-26T10:29:45;10.50;99.90
14378;DHT22;7272;53.668;9.578;2022-12-26T10:32:51;10.50;99.90
14378;DHT22;7272;53.668;9.578;2022-12-26T10:35:56;10.60;99.90
14378;DHT22;7272;53.668;9.578;2022-12-26T10:39:01;10.70;99.90
14378;DHT22;7272;53.668;9.578;2022-12-26T10:42:10;10.70;99.90
14378;DHT22;7272;53.668;9.578;2022-12-26T10:45:16;10.70;99.90
14378;DHT22;7272;53.668;9.578;2022-12-26T10:48:25;10.70;99.90
14378;DHT22;7272;53.668;9.578;2022-12-26T10:51:29;10.60;99.90
14378;DHT22;7272;53.668;9.578;2022-12-26T10:54:31;10.60;99.90
14378;DHT22;7272;53.668;9.578;2022-12-26T10:57:35;10.60;99.90
14378;DHT22;7272;53.668;9.578;2022-12-26T11:00:41;10.60;99.90
14378;DHT22;7272;53.668;9.578;2022-12-26T11:03:52;10.60;99.90
14378;DHT22;7272;53.668;9.578;2022-12-26T11:06:55;10.60;99.90
14378;DHT22;7272;53.668;9.578;2022-12-26T11:09:58;10.60;99.90
14378;DHT22;7272;53.668;9.578;2022-12-26T11:13:05;10.60;99.90
14378;DHT22;7272;53.668;9.578;2022-12-26T11:16:09;10.60;99.90
14378;DHT22;7272;53.668;9.578;2022-12-26T11:19:25;10.60;99.90
14378;DHT22;7272;53.668;9.578;2022-12-26T11:22:28;10.60;99.90
14378;DHT22;7272;53.668;9.578;2022-12-26T11:25:30;10.60;99.90
14378;DHT22;7272;53.668;9.578;2022-12-26T11:28:36;10.60;99.90
14378;DHT22;7272;53.668;9.578;2022-12-26T11:31:40;10.60;99.90
14378;DHT22;7272;53.668;9.578;2022-12-26T11:34:53;10.60;99.90
14378;DHT22;7272;53.668;9.578;2022-12-26T11:37:57;10.60;99.90
14378;DHT22;7272;53.668;9.578;2022-12-26T11:41:00;10.60;99.90
14378;DHT22;7272;53.668;9.578;2022-12-26T11:44:28;10.70;99.90
14378;DHT22;7272;53.668;9.578;2022-12-26T11:47:31;10.70;99.90
14378;DHT22;7272;53.668;9.578;2022-12-26T11:50:43;10.70;99.90
14378;DHT22;7272;53.668;9.578;2022-12-26T11:53:46;10.70;99.90
14378;DHT22;7272;53.668;9.578;2022-12-26T11:56:49;10.60;99.90
14378;DHT22;7272;53.668;9.578;2022-12-26T12:00:17;10.60;99.90
14378;DHT22;7272;53.668;9.578;2022-12-26T12:03:22;10.70;99.90
14378;DHT22;7272;53.668;9.578;2022-12-26T12:06:42;10.70;99.90
14378;DHT22;7272;53.668;9.578;2022-12-26T12:09:53;10.70;99.90
14378;DHT22;7272;53.668;9.578;2022-12-26T12:13:03;10.70;99.90
14378;DHT22;7272;53.668;9.578;2022-12-26T12:16:23;10.70;99.90
14378;DHT22;7272;53.668;9.578;2022-12-26T12:19:40;10.80;99.90
14378;DHT22;7272;53.668;9.578;2022-12-26T12:22:56;10.80;99.90
14378;DHT22;7272;53.668;9.578;2022-12-26T12:26:08;10.80;99.90
14378;DHT22;7272;53.668;9.578;2022-12-26T12:29:34;10.80;99.90
14378;DHT22;7272;53.668;9.578;2022-12-26T12:32:56;10.80;99.90
14378;DHT22;7272;53.668;9.578;2022-12-26T12:36:10;10.80;99.90
14378;DHT22;7272;53.668;9.578;2022-12-26T12:39:24;10.80;99.90
14378;DHT22;7272;53.668;9.578;2022-12-26T12:42:46;10.80;99.90
14378;DHT22;7272;53.668;9.578;2022-12-26T12:46:06;10.80;99.90
14378;DHT22;7272;53.668;9.578;2022-12-26T12:49:41;10.90;99.90
14378;DHT22;7272;53.668;9.578;2022-12-26T12:52:49;10.80;99.90
14378;DHT22;7272;53.668;9.578;2022-12-26T12:56:11;10.70;99.90
14378;DHT22;7272;53.668;9.578;2022-12-26T12:59:25;10.80;99.90
14378;DHT22;7272;53.668;9.578;2022-12-26T13:02:35;10.70;99.90
14378;DHT22;7272;53.668;9.578;2022-12-26T13:05:45;10.50;99.90
14378;DHT22;7272;53.668;9.578;2022-12-26T13:08:57;10.40;99.90
14378;DHT22;7272;53.668;9.578;2022-12-26T13:12:03;10.30;99.90
14378;DHT22;7272;53.668;9.578;2022-12-26T13:15:12;10.20;99.90
14378;DHT22;7272;53.668;9.578;2022-12-26T13:18:21;10.10;99.90
14378;DHT22;7272;53.668;9.578;2022-12-26T13:21:26;10.00;99.90
14378;DHT22;7272;53.668;9.578;2022-12-26T13:24:48;9.80;99.90
14378;DHT22;7272;53.668;9.578;2022-12-26T13:27:55;9.60;99.90
14378;DHT22;7272;53.668;9.578;2022-12-26T13:31:09;9.40;99.90
14378;DHT22;7272;53.668;9.578;2022-12-26T13:34:18;9.20;99.90
14378;DHT22;7272;53.668;9.578;2022-12-26T13:37:55;9.10;99.90
14378;DHT22;7272;53.668;9.578;2022-12-26T13:41:00;9.10;99.90
14378;DHT22;7272;53.668;9.578;2022-12-26T13:44:25;9.10;99.90
14378;DHT22;7272;53.668;9.578;2022-12-26T13:47:31;9.00;99.90
14378;DHT22;7272;53.668;9.578;2022-12-26T13:50:47;8.90;99.90
14378;DHT22;7272;53.668;9.578;2022-12-26T13:53:58;8.90;99.90
14378;DHT22;7272;53.668;9.578;2022-12-26T14:00:41;8.80;99.90
14378;DHT22;7272;53.668;9.578;2022-12-26T14:03:53;8.70;99.90
14378;DHT22;7272;53.668;9.578;2022-12-26T14:07:06;8.60;99.90
14378;DHT22;7272;53.668;9.578;2022-12-26T14:10:18;8.50;99.90
14378;DHT22;7272;53.668;9.578;2022-12-26T14:13:46;8.40;99.90
14378;DHT22;7272;53.668;9.578;2022-12-26T14:16:55;8.30;99.90
14378;DHT22;7272;53.668;9.578;2022-12-26T14:20:10;8.30;99.90
14378;DHT22;7272;53.668;9.578;2022-12-26T14:23:28;8.30;99.90
14378;DHT22;7272;53.668;9.578;2022-12-26T14:26:42;8.20;99.90
14378;DHT22;7272;53.668;9.578;2022-12-26T14:29:49;8.20;99.90
14378;DHT22;7272;53.668;9.578;2022-12-26T14:33:23;8.20;99.90
14378;DHT22;7272;53.668;9.578;2022-12-26T14:36:35;8.10;99.90
14378;DHT22;7272;53.668;9.578;2022-12-26T14:39:51;8.10;99.90
14378;DHT22;7272;53.668;9.578;2022-12-26T14:43:29;8.10;99.90
14378;DHT22;7272;53.668;9.578;2022-12-26T14:46:55;8.00;99.90
14378;DHT22;7272;53.668;9.578;2022-12-26T14:50:37;7.90;99.90
14378;DHT22;7272;53.668;9.578;2022-12-26T14:53:43;7.70;99.90
14378;DHT22;7272;53.668;9.578;2022-12-26T14:56:46;7.70;99.90
14378;DHT22;7272;53.668;9.578;2022-12-26T15:00:23;7.60;99.90
14378;DHT22;7272;53.668;9.578;2022-12-26T15:03:43;7.60;99.90
14378;DHT22;7272;53.668;9.578;2022-12-26T15:07:01;7.50;99.90
14378;DHT22;7272;53.668;9.578;2022-12-26T15:10:32;7.50;99.90
14378;DHT22;7272;53.668;9.578;2022-12-26T15:17:38;7.60;99.90
14378;DHT22;7272;53.668;9.578;2022-12-26T15:21:11;7.60;99.90
14378;DHT22;7272;53.668;9.578;2022-12-26T15:31:50;7.50;99.90
14378;DHT22;7272;53.668;9.578;2022-12-26T15:35:10;7.50;99.90
14378;DHT22;7272;53.668;9.578;2022-12-26T15:38:22;7.40;99.90
14378;DHT22;7272;53.668;9.578;2022-12-26T15:41:32;7.40;99.90
14378;DHT22;7272;53.668;9.578;2022-12-26T15:44:42;7.40;99.90
14378;DHT22;7272;53.668;9.578;2022-12-26T15:47:56;7.30;99.90
14378;DHT22;7272;53.668;9.578;2022-12-26T15:51:08;7.30;99.90
14378;DHT22;7272;53.668;9.578;2022-12-26T15:54:25;7.20;99.90
14378;DHT22;7272;53.668;9.578;2022-12-26T15:57:39;7.20;99.90
14378;DHT22;7272;53.668;9.578;2022-12-26T16:00:49;7.00;99.90
14378;DHT22;7272;53.668;9.578;2022-12-26T16:03:53;7.00;99.90
14378;DHT22;7272;53.668;9.578;2022-12-26T16:07:20;6.90;99.90
14378;DHT22;7272;53.668;9.578;2022-12-26T16:10:29;6.80;99.90
14378;DHT22;7272;53.668;9.578;2022-12-26T16:13:32;6.80;99.90
14378;DHT22;7272;53.668;9.578;2022-12-26T16:16:36;6.80;99.90
14378;DHT22;7272;53.668;9.578;2022-12-26T16:19:40;6.80;99.90
14378;DHT22;7272;53.668;9.578;2022-12-26T16:22:43;6.80;99.90
14378;DHT22;7272;53.668;9.578;2022-12-26T16:25:47;6.90;99.90
14378;DHT22;7272;53.668;9.578;2022-12-26T16:28:54;6.90;99.90
14378;DHT22;7272;53.668;9.578;2022-12-26T16:32:02;6.90;99.90
14378;DHT22;7272;53.668;9.578;2022-12-26T16:35:12;6.90;99.90
14378;DHT22;7272;53.668;9.578;2022-12-26T16:38:24;6.90;99.90
14378;DHT22;7272;53.668;9.578;2022-12-26T16:41:28;6.80;99.90
14378;DHT22;7272;53.668;9.578;2022-12-26T16:44:37;6.80;99.90
14378;DHT22;7272;53.668;9.578;2022-12-26T16:47:39;6.90;99.90
14378;DHT22;7272;53.668;9.578;2022-12-26T16:50:45;6.90;99.90
14378;DHT22;7272;53.668;9.578;2022-12-26T16:53:49;6.80;99.90
14378;DHT22;7272;53.668;9.578;2022-12-26T16:57:00;7.00;99.90
14378;DHT22;7272;53.668;9.578;2022-12-26T17:00:03;7.00;99.90
14378;DHT22;7272;53.668;9.578;2022-12-26T17:03:08;7.00;99.90
14378;DHT22;7272;53.668;9.578;2022-12-26T17:06:21;7.00;99.90
14378;DHT22;7272;53.668;9.578;2022-12-26T17:09:27;7.00;99.90
14378;DHT22;7272;53.668;9.578;2022-12-26T17:12:34;7.00;99.90
14378;DHT22;7272;53.668;9.578;2022-12-26T17:15:52;6.90;99.90
14378;DHT22;7272;53.668;9.578;2022-12-26T17:18:56;6.80;99.90
14378;DHT22;7272;53.668;9.578;2022-12-26T17:22:26;6.70;99.90
14378;DHT22;7272;53.668;9.578;2022-12-26T17:26:17;6.70;99.90
14378;DHT22;7272;53.668;9.578;2022-12-26T17:29:44;6.60;99.90
14378;DHT22;7272;53.668;9.578;2022-12-26T17:32:54;6.70;99.90
14378;DHT22;7272;53.668;9.578;2022-12-26T17:36:06;6.70;99.90
14378;DHT22;7272;53.668;9.578;2022-12-26T17:39:19;6.70;99.90
14378;DHT22;7272;53.668;9.578;2022-12-26T17:42:39;6.70;99.90
14378;DHT22;7272;53.668;9.578;2022-12-26T17:45:44;6.70;99.90
14378;DHT22;7272;53.668;9.578;2022-12-26T17:48:47;6.70;99.90
14378;DHT22;7272;53.668;9.578;2022-12-26T17:51:49;6.70;99.90
14378;DHT22;7272;53.668;9.578;2022-12-26T17:54:57;6.70;99.90
14378;DHT22;7272;53.668;9.578;2022-12-26T17:58:03;6.70;99.90
14378;DHT22;7272;53.668;9.578;2022-12-26T18:01:06;6.60;99.90
14378;DHT22;7272;53.668;9.578;2022-12-26T18:04:09;6.50;99.90
14378;DHT22;7272;53.668;9.578;2022-12-26T18:07:14;6.50;99.90
14378;DHT22;7272;53.668;9.578;2022-12-26T18:10:20;6.50;99.90
14378;DHT22;7272;53.668;9.578;2022-12-26T18:13:24;6.40;99.90
14378;DHT22;7272;53.668;9.578;2022-12-26T18:16:27;6.40;99.90
14378;DHT22;7272;53.668;9.578;2022-12-26T18:19:30;6.40;99.90
14378;DHT22;7272;53.668;9.578;2022-12-26T18:22:32;6.40;99.90
14378;DHT22;7272;53.668;9.578;2022-12-26T18:25:35;6.40;99.90
14378;DHT22;7272;53.668;9.578;2022-12-26T18:28:39;6.30;99.90
14378;DHT22;7272;53.668;9.578;2022-12-26T18:31:42;6.30;99.90
14378;DHT22;7272;53.668;9.578;2022-12-26T18:34:44;6.30;99.90
14378;DHT22;7272;53.668;9.578;2022-12-26T18:37:49;6.30;99.90
14378;DHT22;7272;53.668;9.578;2022-12-26T18:40:55;6.20;99.90
14378;DHT22;7272;53.668;9.578;2022-12-26T18:44:02;6.20;99.90
14378;DHT22;7272;53.668;9.578;2022-12-26T18:47:05;6.20;99.90
14378;DHT22;7272;53.668;9.578;2022-12-26T18:50:10;6.20;99.90
14378;DHT22;7272;53.668;9.578;2022-12-26T18:53:14;6.10;99.90
14378;DHT22;7272;53.668;9.578;2022-12-26T18:56:19;6.10;99.90
14378;DHT22;7272;53.668;9.578;2022-12-26T18:59:24;6.10;99.90
14378;DHT22;7272;53.668;9.578;2022-12-26T19:02:26;6.00;99.90
14378;DHT22;7272;53.668;9.578;2022-12-26T19:05:30;6.00;99.90
14378;DHT22;7272;53.668;9.578;2022-12-26T19:08:33;6.00;99.90
14378;DHT22;7272;53.668;9.578;2022-12-26T19:11:36;6.00;99.90
14378;DHT22;7272;53.668;9.578;2022-12-26T19:14:40;6.00;99.90
14378;DHT22;7272;53.668;9.578;2022-12-26T19:17:44;6.00;99.90
14378;DHT22;7272;53.668;9.578;2022-12-26T19:20:47;6.00;99.90
14378;DHT22;7272;53.668;9.578;2022-12-26T19:23:49;6.00;99.90
14378;DHT22;7272;53.668;9.578;2022-12-26T19:26:52;6.00;99.90
14378;DHT22;7272;53.668;9.578;2022-12-26T19:29:56;6.00;99.90
14378;DHT22;7272;53.668;9.578;2022-12-26T19:32:58;6.00;99.90
14378;DHT22;7272;53.668;9.578;2022-12-26T19:36:01;5.90;99.90
14378;DHT22;7272;53.668;9.578;2022-12-26T19:39:03;5.90;99.90
14378;DHT22;7272;53.668;9.578;2022-12-26T19:42:08;5.90;99.90
14378;DHT22;7272;53.668;9.578;2022-12-26T19:45:12;5.90;99.90
14378;DHT22;7272;53.668;9.578;2022-12-26T19:48:14;5.90;99.90
14378;DHT22;7272;53.668;9.578;2022-12-26T19:51:17;5.90;99.90
14378;DHT22;7272;53.668;9.578;2022-12-26T19:54:20;5.90;99.90
14378;DHT22;7272;53.668;9.578;2022-12-26T19:57:22;5.80;99.90
14378;DHT22;7272;53.668;9.578;2022-12-26T20:00:26;5.80;99.90
14378;DHT22;7272;53.668;9.578;2022-12-26T20:03:28;5.80;99.90
14378;DHT22;7272;53.668;9.578;2022-12-26T20:06:33;5.80;99.90
14378;DHT22;7272;53.668;9.578;2022-12-26T20:09:35;5.70;99.90
14378;DHT22;7272;53.668;9.578;2022-12-26T20:12:37;5.70;99.90
14378;DHT22;7272;53.668;9.578;2022-12-26T20:15:41;5.70;99.90
14378;DHT22;7272;53.668;9.578;2022-12-26T20:18:43;5.70;99.90
14378;DHT22;7272;53.668;9.578;2022-12-26T20:21:46;5.70;99.90
14378;DHT22;7272;53.668;9.578;2022-12-26T20:24:48;5.70;99.90
14378;DHT22;7272;53.668;9.578;2022-12-26T20:27:50;5.70;99.90
14378;DHT22;7272;53.668;9.578;2022-12-26T20:30:58;5.70;99.90
14378;DHT22;7272;53.668;9.578;2022-12-26T20:34:01;5.70;99.90
14378;DHT22;7272;53.668;9.578;2022-12-26T20:37:03;5.70;99.90
14378;DHT22;7272;53.668;9.578;2022-12-26T20:40:06;5.70;99.90
14378;DHT22;7272;53.668;9.578;2022-12-26T20:43:09;5.70;99.90
14378;DHT22;7272;53.668;9.578;2022-12-26T20:46:14;5.70;99.90
14378;DHT22;7272;53.668;9.578;2022-12-26T20:49:17;5.70;99.90
14378;DHT22;7272;53.668;9.578;2022-12-26T20:52:19;5.80;99.90
14378;DHT22;7272;53.668;9.578;2022-12-26T20:55:21;5.80;99.90